Time;durP1;ratioP1;P1;durP2;ratioP2;P2;SDS_P1;SDS_P2;PMS_P1;PMS_P2;Temp;Humidity;BMP_temperature;BMP_pressure;BME280_temperature;BME280_humidity;BME280_pressure;Samples;Min_cycle;Max_cycle;Signal;HPM_P1;HPM_P2
2022/07/06 00:00:38;;;;;;;1.60;1.50;;;23.30;47.60;;;;;;4940310;29;20265;-58
2022/07/06 00:03:04;;;;;;;1.50;1.40;;;23.30;47.60;;;;;;4937774;29;20582;-57
2022/07/06 00:05:29;;;;;;;1.60;1.50;;;23.30;47.50;;;;;;4935355;29;20563;-58
2022/07/06 00:07:55;;;;;;;1.90;1.80;;;23.30;47.60;;;;;;4934728;29;20438;-59
2022/07/06 00:10:20;;;;;;;1.90;1.80;;;23.30;47.60;;;;;;4936681;29;20283;-56
2022/07/06 00:12:46;;;;;;;1.60;1.50;;;23.30;47.60;;;;;;4939272;29;20187;-56
2022/07/06 00:15:11;;;;;;;1.80;1.70;;;23.30;47.60;;;;;;4938130;29;20197;-57
2022/07/06 00:17:37;;;;;;;1.70;1.60;;;23.30;47.60;;;;;;4934319;29;20183;-56
2022/07/06 00:20:03;;;;;;;1.50;1.40;;;23.30;47.50;;;;;;4937646;29;20556;-56
2022/07/06 00:22:28;;;;;;;1.60;1.50;;;23.30;47.50;;;;;;4934601;29;20195;-57
2022/07/06 00:24:54;;;;;;;1.70;1.60;;;23.30;47.60;;;;;;4938465;29;20273;-60
2022/07/06 00:27:19;;;;;;;1.70;1.60;;;23.30;47.60;;;;;;4933702;29;20187;-59
2022/07/06 00:29:45;;;;;;;1.80;1.70;;;23.30;47.60;;;;;;4936023;29;20275;-56
2022/07/06 00:32:11;;;;;;;1.70;1.60;;;23.30;47.60;;;;;;4935055;29;20608;-56
2022/07/06 00:34:39;;;;;;;1.60;1.50;;;23.30;47.50;;;;;;4936504;29;20896;-58
2022/07/06 00:37:05;;;;;;;1.50;1.40;;;23.30;47.60;;;;;;4932595;29;20520;-62
2022/07/06 00:39:31;;;;;;;1.60;1.50;;;23.30;47.60;;;;;;4938906;29;21110;-61
2022/07/06 00:41:57;;;;;;;1.70;1.60;;;23.30;47.50;;;;;;4933041;29;20564;-56
2022/07/06 00:44:22;;;;;;;1.60;1.50;;;23.30;47.60;;;;;;4932877;29;20194;-60
2022/07/06 00:46:48;;;;;;;1.77;1.67;;;23.30;47.60;;;;;;4934233;29;20242;-56
2022/07/06 00:51:58;;;;;;;1.47;1.37;;;23.30;47.50;;;;;;4930399;29;20303;-58
2022/07/06 00:54:24;;;;;;;1.90;1.80;;;23.30;47.50;;;;;;4936699;29;20432;-56
2022/07/06 00:56:49;;;;;;;1.70;1.60;;;23.30;47.50;;;;;;4935248;29;20444;-55
2022/07/06 00:59:15;;;;;;;1.77;1.67;;;23.30;47.50;;;;;;4931970;29;20218;-61
2022/07/06 01:01:40;;;;;;;1.57;1.47;;;23.30;47.60;;;;;;4936719;29;20200;-55
2022/07/06 01:04:06;;;;;;;1.80;1.70;;;23.30;47.50;;;;;;4934725;29;20197;-58
2022/07/06 01:06:32;;;;;;;1.80;1.70;;;23.30;47.60;;;;;;4937310;29;20241;-57
2022/07/06 01:08:59;;;;;;;1.80;1.70;;;23.30;47.60;;;;;;4935817;29;20315;-58
2022/07/06 01:11:25;;;;;;;1.50;1.40;;;23.30;47.60;;;;;;4931438;29;20213;-57
2022/07/06 01:13:51;;;;;;;1.70;1.60;;;23.30;47.60;;;;;;4935158;29;20465;-59
2022/07/06 01:16:17;;;;;;;1.60;1.50;;;23.30;47.50;;;;;;4932907;29;20476;-56
2022/07/06 01:18:43;;;;;;;1.43;1.33;;;23.30;47.60;;;;;;4934712;29;20814;-56
2022/07/06 01:21:13;;;;;;;2.03;1.93;;;23.30;47.50;;;;;;4933521;29;20281;-59
2022/07/06 01:23:43;;;;;;;1.63;1.53;;;23.30;47.50;;;;;;4935643;29;20205;-56
2022/07/06 01:26:14;;;;;;;1.60;1.50;;;23.30;47.60;;;;;;4934051;29;20456;-58
2022/07/06 01:28:40;;;;;;;1.70;1.60;;;23.30;47.50;;;;;;4934170;29;20424;-60
2022/07/06 01:31:13;;;;;;;1.60;1.50;;;23.30;47.50;;;;;;4935899;29;20491;-56
2022/07/06 01:33:38;;;;;;;1.77;1.67;;;23.30;47.50;;;;;;4934398;29;20445;-56
2022/07/06 01:36:04;;;;;;;1.50;1.40;;;23.30;47.60;;;;;;4941956;29;20478;-57
2022/07/06 01:38:30;;;;;;;1.57;1.47;;;23.30;47.50;;;;;;4935637;29;20261;-59
2022/07/06 01:40:55;;;;;;;1.60;1.50;;;23.30;47.60;;;;;;4936659;29;20222;-59
2022/07/06 01:43:21;;;;;;;1.57;1.47;;;23.30;47.50;;;;;;4934172;29;20261;-55
2022/07/06 01:45:47;;;;;;;1.50;1.40;;;23.30;47.60;;;;;;4941661;29;20193;-56
2022/07/06 01:48:12;;;;;;;1.50;1.40;;;23.30;47.50;;;;;;4941853;29;20197;-56
2022/07/06 01:50:38;;;;;;;1.70;1.60;;;23.30;47.60;;;;;;4937270;29;20210;-64
2022/07/06 01:53:06;;;;;;;1.83;1.73;;;23.30;47.50;;;;;;4941260;29;20546;-59
2022/07/06 01:55:32;;;;;;;1.60;1.50;;;23.40;47.70;;;;;;4939706;29;20194;-59
2022/07/06 01:57:57;;;;;;;1.77;1.67;;;23.30;47.60;;;;;;4939749;29;20484;-58
2022/07/06 02:00:23;;;;;;;1.57;1.47;;;23.30;47.50;;;;;;4922308;29;20206;-62
2022/07/06 02:02:48;;;;;;;1.80;1.70;;;23.30;47.50;;;;;;4937783;29;20194;-58
2022/07/06 02:05:14;;;;;;;1.53;1.43;;;23.30;47.60;;;;;;4920816;29;20271;-55
2022/07/06 02:07:39;;;;;;;1.60;1.50;;;23.30;47.60;;;;;;4937536;29;20282;-55
2022/07/06 02:10:05;;;;;;;1.60;1.50;;;23.30;47.50;;;;;;4939876;29;20300;-56
2022/07/06 02:12:31;;;;;;;1.60;1.50;;;23.30;47.50;;;;;;4939197;29;20274;-56
2022/07/06 02:14:56;;;;;;;1.73;1.63;;;23.30;47.60;;;;;;4923626;29;20190;-56
2022/07/06 02:17:22;;;;;;;1.57;1.47;;;23.30;47.60;;;;;;4937128;29;20194;-58
2022/07/06 02:19:47;;;;;;;1.50;1.40;;;23.30;47.60;;;;;;4936569;29;20929;-57
2022/07/06 02:22:13;;;;;;;1.60;1.50;;;23.30;47.50;;;;;;4941059;29;20247;-58
2022/07/06 02:24:38;;;;;;;1.50;1.40;;;23.30;47.60;;;;;;4938974;29;20191;-56
2022/07/06 02:27:04;;;;;;;1.60;1.50;;;23.30;47.60;;;;;;4939975;29;20262;-61
2022/07/06 02:29:29;;;;;;;1.60;1.50;;;23.30;47.60;;;;;;4938571;29;20194;-56
2022/07/06 02:31:55;;;;;;;1.50;1.40;;;23.30;47.60;;;;;;4938092;29;20214;-58
2022/07/06 02:34:21;;;;;;;1.60;1.50;;;23.30;47.50;;;;;;4943624;29;20195;-59
2022/07/06 02:36:46;;;;;;;1.73;1.63;;;23.30;47.60;;;;;;4938504;29;20190;-55
2022/07/06 02:39:12;;;;;;;1.47;1.37;;;23.30;47.60;;;;;;4938660;29;20301;-60
2022/07/06 02:41:37;;;;;;;1.50;1.40;;;23.30;47.60;;;;;;4936904;29;20337;-57
2022/07/06 02:44:03;;;;;;;1.50;1.40;;;23.30;47.60;;;;;;4937920;29;20225;-56
2022/07/06 02:46:29;;;;;;;1.50;1.40;;;23.30;47.50;;;;;;4935688;29;20272;-56
2022/07/06 02:48:54;;;;;;;2.07;1.30;;;23.30;47.60;;;;;;4936275;29;20264;-57
2022/07/06 02:51:20;;;;;;;1.50;1.40;;;23.30;47.60;;;;;;4938094;29;20215;-55
2022/07/06 02:53:45;;;;;;;1.40;1.30;;;23.30;47.60;;;;;;4937379;29;20202;-55
2022/07/06 02:56:11;;;;;;;1.60;1.50;;;23.30;47.60;;;;;;4935305;29;20258;-57
2022/07/06 02:58:36;;;;;;;1.70;1.60;;;23.30;47.60;;;;;;4937715;29;20713;-56
2022/07/06 03:01:03;;;;;;;1.73;1.63;;;23.30;47.50;;;;;;4939486;29;20653;-60
2022/07/06 03:03:29;;;;;;;1.40;1.30;;;23.30;47.50;;;;;;4936686;29;20198;-56
2022/07/06 03:05:54;;;;;;;1.73;1.63;;;23.30;47.60;;;;;;4939412;29;20492;-56
2022/07/06 03:08:20;;;;;;;1.50;1.40;;;23.30;47.50;;;;;;4940072;29;20198;-58
2022/07/06 03:10:46;;;;;;;1.43;1.33;;;23.30;47.60;;;;;;4938787;29;20205;-58
2022/07/06 03:13:11;;;;;;;1.80;1.70;;;23.30;47.50;;;;;;4937514;29;20205;-57
2022/07/06 03:15:37;;;;;;;1.43;1.33;;;23.30;47.60;;;;;;4936106;29;20199;-58
2022/07/06 03:18:02;;;;;;;1.70;1.60;;;23.30;47.60;;;;;;4936394;29;20206;-59
2022/07/06 03:20:28;;;;;;;1.33;1.23;;;23.30;47.60;;;;;;4942506;29;20198;-56
2022/07/06 03:22:54;;;;;;;1.50;1.40;;;23.30;47.60;;;;;;4935671;29;20536;-57
2022/07/06 03:25:19;;;;;;;1.60;1.50;;;23.30;47.60;;;;;;4936211;29;20187;-57
2022/07/06 03:27:45;;;;;;;1.63;1.53;;;23.30;47.60;;;;;;4942058;29;20175;-58
2022/07/06 03:30:10;;;;;;;1.70;1.60;;;23.30;47.50;;;;;;4939777;29;20220;-55
2022/07/06 03:32:36;;;;;;;1.73;1.63;;;23.30;47.50;;;;;;4936117;29;20278;-55
2022/07/06 03:35:02;;;;;;;1.57;1.47;;;23.30;48.30;;;;;;4940766;29;20203;-57
2022/07/06 03:37:27;;;;;;;1.40;1.30;;;23.30;47.60;;;;;;4936699;29;20273;-61
2022/07/06 03:39:53;;;;;;;1.50;1.40;;;23.30;47.60;;;;;;4938848;29;20179;-57
2022/07/06 03:42:18;;;;;;;1.70;1.60;;;23.30;47.50;;;;;;4942391;29;20698;-55
2022/07/06 03:44:44;;;;;;;1.53;1.43;;;23.30;47.60;;;;;;4938931;29;20186;-60
2022/07/06 03:47:09;;;;;;;1.53;1.43;;;23.30;47.50;;;;;;4934286;29;20187;-55
2022/07/06 03:49:35;;;;;;;1.73;1.63;;;23.30;47.60;;;;;;4935843;29;20201;-57
2022/07/06 03:52:01;;;;;;;1.60;1.50;;;23.30;47.60;;;;;;4935322;29;20210;-57
2022/07/06 03:54:27;;;;;;;1.40;1.30;;;23.30;47.60;;;;;;4937689;29;20282;-58
2022/07/06 03:56:53;;;;;;;1.60;1.50;;;23.30;47.60;;;;;;4935253;29;20540;-56
2022/07/06 03:59:18;;;;;;;1.50;1.40;;;23.30;47.50;;;;;;4937528;29;20201;-55
2022/07/06 04:01:44;;;;;;;1.50;1.40;;;23.30;47.60;;;;;;4937386;29;20206;-58
2022/07/06 04:04:10;;;;;;;1.47;1.37;;;23.30;47.50;;;;;;4939722;29;20197;-60
2022/07/06 04:06:36;;;;;;;1.50;1.40;;;23.30;47.50;;;;;;4934043;29;21328;-55
2022/07/06 04:09:02;;;;;;;1.60;1.50;;;23.30;47.60;;;;;;4937040;29;21019;-55
2022/07/06 04:11:29;;;;;;;1.30;1.20;;;23.30;47.50;;;;;;4935029;29;20226;-57
2022/07/06 04:13:55;;;;;;;1.70;1.60;;;23.30;47.60;;;;;;4938301;29;20441;-57
2022/07/06 04:16:21;;;;;;;1.50;1.40;;;23.30;47.60;;;;;;4943019;29;20457;-55
2022/07/06 04:18:47;;;;;;;1.70;1.60;;;23.30;47.60;;;;;;4934916;29;20458;-56
2022/07/06 04:21:13;;;;;;;1.50;1.40;;;23.30;47.50;;;;;;4937722;29;20195;-56
2022/07/06 04:23:38;;;;;;;1.50;1.40;;;23.30;47.60;;;;;;4936249;29;20750;-58
2022/07/06 04:26:05;;;;;;;1.40;1.30;;;23.30;47.60;;;;;;4934528;29;20190;-61
2022/07/06 04:28:30;;;;;;;1.50;1.40;;;23.30;47.50;;;;;;4934053;29;20187;-59
2022/07/06 04:30:56;;;;;;;1.60;1.50;;;23.30;47.60;;;;;;4936730;29;20828;-55
2022/07/06 04:33:22;;;;;;;1.23;1.13;;;23.30;47.60;;;;;;4935902;29;20198;-56
2022/07/06 04:35:47;;;;;;;1.50;1.40;;;23.30;47.60;;;;;;4935646;29;20638;-57
2022/07/06 04:38:13;;;;;;;1.63;1.53;;;23.30;47.60;;;;;;4935550;29;20198;-55
2022/07/06 04:40:39;;;;;;;1.50;1.40;;;23.30;47.60;;;;;;4937719;29;20190;-56
2022/07/06 04:43:04;;;;;;;1.43;1.33;;;23.30;47.60;;;;;;4934957;29;20231;-59
2022/07/06 04:45:30;;;;;;;1.50;1.40;;;23.30;48.30;;;;;;4937429;29;20194;-60
2022/07/06 04:47:55;;;;;;;1.53;1.43;;;23.30;47.50;;;;;;4937129;29;20237;-58
2022/07/06 04:50:21;;;;;;;1.60;1.50;;;23.30;47.50;;;;;;4938496;29;20225;-55
2022/07/06 04:52:47;;;;;;;1.37;1.27;;;23.30;47.50;;;;;;4933554;29;20322;-55
2022/07/06 04:55:14;;;;;;;1.40;1.30;;;23.30;47.50;;;;;;4935386;29;20572;-56
2022/07/06 04:57:41;;;;;;;2.10;1.50;;;23.30;47.60;;;;;;4932794;29;20662;-55
2022/07/06 05:00:08;;;;;;;1.50;1.40;;;23.30;47.60;;;;;;4934164;29;20429;-59
2022/07/06 05:02:34;;;;;;;1.20;1.10;;;23.30;47.50;;;;;;4937432;29;20982;-59
2022/07/06 05:04:59;;;;;;;1.50;1.40;;;23.30;47.50;;;;;;4937229;29;20536;-60
2022/07/06 05:07:29;;;;;;;1.50;1.40;;;23.30;47.60;;;;;;4937076;29;20245;-56
2022/07/06 05:09:54;;;;;;;1.40;1.30;;;23.30;47.50;;;;;;4939099;29;20190;-56
2022/07/06 05:12:20;;;;;;;1.60;1.50;;;23.30;47.50;;;;;;4936536;29;20797;-55
2022/07/06 05:14:47;;;;;;;1.53;1.43;;;23.30;47.60;;;;;;4918742;29;20233;-56
2022/07/06 05:17:13;;;;;;;1.43;1.33;;;23.30;47.60;;;;;;4934088;29;20191;-55
2022/07/06 05:19:38;;;;;;;1.60;1.50;;;23.30;47.50;;;;;;4933443;29;20455;-58
2022/07/06 05:22:04;;;;;;;1.50;1.40;;;23.30;47.50;;;;;;4936701;29;20209;-58
2022/07/06 05:24:29;;;;;;;1.50;1.40;;;23.30;47.60;;;;;;4937426;29;20218;-62
2022/07/06 05:26:55;;;;;;;1.70;1.60;;;23.30;48.30;;;;;;4932301;29;20660;-55
2022/07/06 05:29:20;;;;;;;1.50;1.40;;;23.30;47.60;;;;;;4934841;29;20542;-55
2022/07/06 05:31:46;;;;;;;1.40;1.30;;;23.30;47.50;;;;;;4930586;29;20210;-56
2022/07/06 05:34:12;;;;;;;1.40;1.30;;;23.30;47.50;;;;;;4935139;29;20209;-55
2022/07/06 05:36:39;;;;;;;1.30;1.20;;;23.30;47.50;;;;;;4935978;29;20703;-60
2022/07/06 05:39:05;;;;;;;1.70;1.60;;;23.30;47.60;;;;;;4938651;29;20439;-56
2022/07/06 05:41:32;;;;;;;1.30;1.20;;;23.30;47.60;;;;;;4934986;29;20424;-55
2022/07/06 05:43:57;;;;;;;1.60;1.50;;;23.30;47.50;;;;;;4933198;29;20440;-58
2022/07/06 05:46:23;;;;;;;1.53;1.43;;;23.30;47.50;;;;;;4932255;29;20437;-56
2022/07/06 05:51:33;;;;;;;1.60;1.50;;;23.30;47.50;;;;;;4932001;29;20247;-58
2022/07/06 05:53:59;;;;;;;1.50;1.40;;;23.30;47.60;;;;;;4932809;29;20447;-59
2022/07/06 05:56:25;;;;;;;1.50;1.40;;;23.30;47.60;;;;;;4938124;29;20432;-56
2022/07/06 05:58:51;;;;;;;1.70;1.60;;;23.30;47.60;;;;;;4937516;29;20199;-56
2022/07/06 06:01:17;;;;;;;1.40;1.30;;;23.30;47.50;;;;;;4935272;29;20209;-56
2022/07/06 06:03:43;;;;;;;1.70;1.60;;;23.30;47.50;;;;;;4932068;29;20270;-56
2022/07/06 06:06:08;;;;;;;1.50;1.40;;;23.30;47.50;;;;;;4932870;29;20576;-55
2022/07/06 06:08:34;;;;;;;1.50;1.40;;;23.30;47.60;;;;;;4935895;29;20190;-58
2022/07/06 06:10:59;;;;;;;1.60;1.50;;;23.30;47.60;;;;;;4938010;29;20210;-61
2022/07/06 06:13:25;;;;;;;1.30;1.20;;;23.30;47.50;;;;;;4933787;29;20191;-55
2022/07/06 06:15:52;;;;;;;1.27;1.17;;;23.30;47.60;;;;;;4934740;29;20626;-58
2022/07/06 06:18:18;;;;;;;1.30;1.20;;;23.30;47.50;;;;;;4933683;29;20449;-62
2022/07/06 06:20:45;;;;;;;1.40;1.30;;;23.30;47.60;;;;;;4935394;29;20476;-56
2022/07/06 06:23:14;;;;;;;1.40;1.30;;;23.30;47.60;;;;;;4931853;29;20437;-55
2022/07/06 06:25:40;;;;;;;1.40;1.30;;;23.30;47.50;;;;;;4933767;29;20808;-56
2022/07/06 06:28:08;;;;;;;1.40;1.30;;;23.30;47.50;;;;;;4934138;29;20532;-58
2022/07/06 06:30:35;;;;;;;1.40;1.30;;;23.30;47.50;;;;;;4940253;28;20464;-58
2022/07/06 06:33:13;;;;;;;1.37;1.27;;;23.30;47.50;;;;;;4938887;29;20527;-57
2022/07/06 06:35:49;;;;;;;1.17;1.10;;;23.30;47.50;;;;;;4935965;29;20434;-56
2022/07/06 06:38:17;;;;;;;1.50;1.27;;;23.30;47.50;;;;;;4935519;29;21032;-63
2022/07/06 06:40:43;;;;;;;1.40;1.30;;;23.30;47.50;;;;;;4937299;29;20522;-56
2022/07/06 06:43:09;;;;;;;1.50;1.40;;;23.30;47.50;;;;;;4903391;29;1087178;-56
2022/07/06 06:45:35;;;;;;;1.53;1.43;;;23.30;47.60;;;;;;4941245;29;20437;-56
2022/07/06 06:48:01;;;;;;;1.50;1.40;;;23.30;47.40;;;;;;4934999;29;20455;-59
2022/07/06 06:50:27;;;;;;;1.50;1.40;;;23.30;47.50;;;;;;4938407;29;20558;-55
2022/07/06 06:52:52;;;;;;;1.67;1.57;;;23.30;47.50;;;;;;4939658;29;20451;-56
2022/07/06 06:55:18;;;;;;;1.40;1.30;;;23.30;47.50;;;;;;4939747;29;20512;-58
2022/07/06 06:57:45;;;;;;;1.27;1.17;;;23.30;47.50;;;;;;4939971;29;20892;-55
2022/07/06 07:00:12;;;;;;;1.30;1.20;;;23.30;47.40;;;;;;4939607;29;20194;-55
2022/07/06 07:02:38;;;;;;;1.20;1.10;;;23.30;47.40;;;;;;4936799;29;20766;-55
2022/07/06 07:05:05;;;;;;;1.30;1.20;;;23.30;47.50;;;;;;4934566;29;20441;-57
2022/07/06 07:07:30;;;;;;;1.50;1.40;;;23.30;47.40;;;;;;4942352;29;20846;-62
2022/07/06 07:09:56;;;;;;;1.47;1.37;;;23.30;47.40;;;;;;4937094;29;20516;-57
2022/07/06 07:12:22;;;;;;;1.43;1.33;;;23.30;47.40;;;;;;4937813;29;20581;-55
2022/07/06 07:14:48;;;;;;;1.43;1.33;;;23.30;47.40;;;;;;4932402;29;20199;-58
2022/07/06 07:17:14;;;;;;;1.50;1.40;;;23.30;47.40;;;;;;4940239;29;20183;-56
2022/07/06 07:19:40;;;;;;;1.40;1.30;;;23.30;47.40;;;;;;4938599;29;20421;-56
2022/07/06 07:22:06;;;;;;;1.40;1.30;;;23.30;47.40;;;;;;4936971;29;20499;-56
2022/07/06 07:24:32;;;;;;;1.47;1.37;;;23.30;47.40;;;;;;4932994;29;20194;-56
2022/07/06 07:26:58;;;;;;;1.27;1.13;;;23.30;47.40;;;;;;4939013;29;20222;-56
2022/07/06 07:29:24;;;;;;;1.37;1.27;;;23.30;47.30;;;;;;4937527;29;20487;-60
2022/07/06 07:31:49;;;;;;;0.93;0.93;;;23.30;47.30;;;;;;4936236;29;20827;-55
2022/07/06 07:34:15;;;;;;;1.30;1.20;;;23.30;47.40;;;;;;4939374;29;20488;-56
2022/07/06 07:36:41;;;;;;;1.37;1.27;;;23.30;47.40;;;;;;4936369;29;20208;-56
2022/07/06 07:39:07;;;;;;;1.50;1.40;;;23.30;47.30;;;;;;4937782;29;20441;-56
2022/07/06 07:41:33;;;;;;;1.20;1.10;;;23.30;47.30;;;;;;4936000;29;20207;-62
2022/07/06 07:43:59;;;;;;;2.03;1.30;;;23.30;47.30;;;;;;4934959;29;20448;-59
2022/07/06 07:46:25;;;;;;;1.40;1.30;;;23.30;47.30;;;;;;4935466;29;20187;-60
2022/07/06 07:48:50;;;;;;;1.30;1.20;;;23.30;47.30;;;;;;4932534;29;20653;-55
2022/07/06 07:51:18;;;;;;;1.40;1.30;;;23.30;47.30;;;;;;4938355;29;20699;-55
2022/07/06 07:53:44;;;;;;;1.23;1.13;;;23.30;47.30;;;;;;4936875;29;20205;-55
2022/07/06 07:56:10;;;;;;;1.50;1.40;;;23.30;47.30;;;;;;4936918;29;20471;-56
2022/07/06 07:58:35;;;;;;;1.37;1.27;;;23.30;47.40;;;;;;4934606;29;20187;-55
2022/07/06 08:01:01;;;;;;;1.40;1.30;;;23.30;47.40;;;;;;4937997;29;20182;-55
2022/07/06 08:03:31;;;;;;;1.30;1.20;;;23.30;47.40;;;;;;4938969;29;20191;-55
2022/07/06 08:05:57;;;;;;;1.30;1.20;;;23.30;47.30;;;;;;4934828;29;20191;-56
2022/07/06 08:08:23;;;;;;;1.13;1.03;;;23.30;47.40;;;;;;4937140;29;20443;-56
2022/07/06 08:10:48;;;;;;;1.27;1.17;;;23.30;47.40;;;;;;4935984;29;20809;-56
2022/07/06 08:13:14;;;;;;;1.20;1.10;;;23.30;47.40;;;;;;4935976;29;20539;-55
2022/07/06 08:15:40;;;;;;;1.40;1.30;;;23.30;47.30;;;;;;4933676;29;20190;-58
2022/07/06 08:18:06;;;;;;;1.20;1.10;;;23.30;47.30;;;;;;4936168;29;20437;-61
2022/07/06 08:20:31;;;;;;;1.40;1.30;;;23.30;47.20;;;;;;4940868;29;20182;-58
2022/07/06 08:22:57;;;;;;;1.40;1.30;;;23.30;47.40;;;;;;4934088;29;20203;-60
2022/07/06 08:25:23;;;;;;;1.23;1.13;;;23.30;47.30;;;;;;4934966;29;20187;-56
2022/07/06 08:27:49;;;;;;;1.30;1.20;;;23.30;47.30;;;;;;4933210;29;20202;-56
2022/07/06 08:30:15;;;;;;;1.30;1.20;;;23.30;47.20;;;;;;4938152;29;20193;-56
2022/07/06 08:32:42;;;;;;;1.30;1.20;;;23.30;47.20;;;;;;4935344;29;20458;-59
2022/07/06 08:35:08;;;;;;;1.20;1.10;;;23.30;47.10;;;;;;4931329;29;20349;-56
2022/07/06 08:37:34;;;;;;;1.23;1.13;;;23.30;47.20;;;;;;4945214;29;20440;-59
2022/07/06 08:39:59;;;;;;;1.40;1.30;;;23.30;47.20;;;;;;4932883;29;20955;-57
2022/07/06 08:42:32;;;;;;;1.23;1.13;;;23.30;47.20;;;;;;4936118;29;20243;-55
2022/07/06 08:45:00;;;;;;;1.33;1.23;;;23.30;47.20;;;;;;4935035;29;20192;-57
2022/07/06 08:47:27;;;;;;;1.20;1.10;;;23.30;47.20;;;;;;4935126;29;20460;-56
2022/07/06 08:49:54;;;;;;;1.03;1.00;;;23.30;47.20;;;;;;4935074;29;21212;-55
2022/07/06 08:52:22;;;;;;;1.20;1.10;;;23.30;47.20;;;;;;4939489;28;20979;-55
2022/07/06 08:54:47;;;;;;;1.20;1.10;;;23.30;47.20;;;;;;4937566;29;20429;-57
2022/07/06 08:57:14;;;;;;;1.00;1.00;;;23.30;47.10;;;;;;4935628;29;20437;-56
2022/07/06 08:59:39;;;;;;;1.20;1.10;;;23.30;47.20;;;;;;4935570;29;20236;-56
2022/07/06 09:02:05;;;;;;;1.40;1.30;;;23.30;47.20;;;;;;4935070;29;21383;-59
2022/07/06 09:04:35;;;;;;;1.47;1.37;;;23.30;47.20;;;;;;4935192;29;20277;-59
2022/07/06 09:07:00;;;;;;;1.20;1.10;;;23.30;47.10;;;;;;4934749;29;20178;-59
2022/07/06 09:09:30;;;;;;;0.90;0.90;;;23.30;47.20;;;;;;4941507;29;20931;-56
2022/07/06 09:11:56;;;;;;;1.30;1.20;;;23.30;47.10;;;;;;4933529;29;20252;-56
2022/07/06 09:14:22;;;;;;;1.10;1.00;;;23.30;47.10;;;;;;4938394;29;20488;-59
2022/07/06 09:17:01;;;;;;;1.20;1.10;;;23.30;47.10;;;;;;4932992;29;20423;-56
2022/07/06 09:19:27;;;;;;;1.30;1.20;;;23.30;47.10;;;;;;4934033;29;20301;-58
2022/07/06 09:21:53;;;;;;;1.07;1.03;;;23.30;47.10;;;;;;4938706;29;20512;-57
2022/07/06 09:24:20;;;;;;;1.20;1.10;;;23.30;47.10;;;;;;4932008;29;20222;-56
2022/07/06 09:26:48;;;;;;;1.20;1.10;;;23.30;47.20;;;;;;4940331;29;21004;-57
2022/07/06 09:29:13;;;;;;;1.10;1.00;;;23.30;47.90;;;;;;4936173;29;20441;-56
2022/07/06 09:31:40;;;;;;;1.20;1.10;;;23.30;47.10;;;;;;4931293;29;20482;-58
2022/07/06 09:34:12;;;;;;;1.17;1.10;;;23.30;47.20;;;;;;4934650;29;20201;-56
2022/07/06 09:36:40;;;;;;;1.00;1.00;;;23.30;47.10;;;;;;4929079;29;20444;-59
2022/07/06 09:39:19;;;;;;;1.20;1.10;;;23.30;47.10;;;;;;4932126;29;20484;-55
2022/07/06 09:41:46;;;;;;;1.20;1.20;;;23.30;47.20;;;;;;4936435;29;20500;-56
2022/07/06 09:44:12;;;;;;;1.00;1.00;;;23.30;47.10;;;;;;4938429;29;20514;-58
2022/07/06 09:46:43;;;;;;;1.10;1.00;;;23.30;47.10;;;;;;4932282;29;20460;-56
2022/07/06 09:49:09;;;;;;;1.30;1.20;;;23.30;47.10;;;;;;4934968;29;20245;-55
2022/07/06 09:51:38;;;;;;;1.40;1.30;;;23.30;47.10;;;;;;4933220;29;20475;-56
2022/07/06 09:54:10;;;;;;;1.10;1.00;;;23.30;47.10;;;;;;4934203;29;20190;-59
2022/07/06 09:56:40;;;;;;;1.30;1.20;;;23.30;47.10;;;;;;4937756;29;20425;-55
2022/07/06 09:59:12;;;;;;;1.10;1.00;;;23.30;47.10;;;;;;4938802;29;20431;-57
2022/07/06 10:01:39;;;;;;;1.20;1.10;;;23.30;47.00;;;;;;4934140;29;20429;-58
2022/07/06 10:04:13;;;;;;;1.20;1.10;;;23.30;47.10;;;;;;4931505;29;20429;-58
2022/07/06 10:06:40;;;;;;;1.10;1.10;;;23.30;47.10;;;;;;4936991;29;20428;-56
2022/07/06 10:09:07;;;;;;;1.20;1.10;;;23.30;47.10;;;;;;4938841;29;20779;-57
2022/07/06 10:11:44;;;;;;;1.20;1.10;;;23.30;47.10;;;;;;4938533;29;20947;-58
2022/07/06 10:14:11;;;;;;;1.27;1.10;;;23.30;47.00;;;;;;4934584;29;20480;-58
2022/07/06 10:16:38;;;;;;;1.10;1.00;;;23.30;47.10;;;;;;4942443;29;20519;-57
2022/07/06 10:19:08;;;;;;;1.20;1.10;;;23.30;47.00;;;;;;4934683;29;20429;-56
2022/07/06 10:21:41;;;;;;;1.20;1.10;;;23.30;47.00;;;;;;4935531;29;20974;-58
2022/07/06 10:24:09;;;;;;;1.30;1.20;;;23.30;47.00;;;;;;4936111;29;20807;-56
2022/07/06 10:26:36;;;;;;;1.30;1.20;;;23.30;47.00;;;;;;4938660;29;20475;-56
2022/07/06 10:29:06;;;;;;;1.40;1.30;;;23.30;47.00;;;;;;4939099;29;20444;-56
2022/07/06 10:31:35;;;;;;;1.27;1.17;;;23.30;47.00;;;;;;4939208;29;20468;-57
2022/07/06 10:34:04;;;;;;;1.00;1.00;;;23.30;47.00;;;;;;4940740;29;20437;-57
2022/07/06 10:36:30;;;;;;;1.40;1.30;;;23.30;47.00;;;;;;4934234;29;20452;-58
2022/07/06 10:38:56;;;;;;;1.40;1.30;;;23.30;47.00;;;;;;4939214;29;20471;-56
2022/07/06 10:41:33;;;;;;;1.63;1.20;;;23.30;47.00;;;;;;4940836;29;20257;-57
2022/07/06 10:44:18;;;;;;;1.17;1.07;;;23.30;47.00;;;;;;4936317;29;20906;-63
2022/07/06 10:46:59;;;;;;;1.07;1.00;;;23.30;47.00;;;;;;4939124;29;20441;-56
2022/07/06 10:49:27;;;;;;;1.30;1.20;;;23.30;47.00;;;;;;4940627;29;20429;-61
2022/07/06 10:51:53;;;;;;;2.33;1.10;;;23.30;47.00;;;;;;4940384;29;20463;-57
2022/07/06 10:54:20;;;;;;;1.27;1.17;;;23.30;47.00;;;;;;4937621;29;20449;-58
2022/07/06 10:56:50;;;;;;;1.20;1.10;;;23.30;47.00;;;;;;4937902;29;20425;-57
2022/07/06 10:59:17;;;;;;;1.30;1.20;;;23.30;47.00;;;;;;4937786;29;20453;-56
2022/07/06 11:02:11;;;;;;;1.30;1.20;;;23.30;47.00;;;;;;4941708;29;20468;-56
2022/07/06 11:04:38;;;;;;;1.30;1.20;;;23.30;47.00;;;;;;4937749;29;20429;-56
2022/07/06 11:07:16;;;;;;;1.20;1.10;;;23.30;47.00;;;;;;4938178;29;20448;-56
2022/07/06 11:09:55;;;;;;;1.00;1.00;;;23.30;47.00;;;;;;4937141;29;20428;-57
2022/07/06 11:12:21;;;;;;;1.20;1.10;;;23.30;47.00;;;;;;4935108;29;20964;-55
2022/07/06 11:14:51;;;;;;;1.23;1.13;;;23.30;47.00;;;;;;4937907;29;20508;-55
2022/07/06 11:17:18;;;;;;;1.20;1.10;;;23.30;47.00;;;;;;4935410;29;20791;-58
2022/07/06 11:19:57;;;;;;;1.30;1.20;;;23.30;47.00;;;;;;4936094;29;20433;-55
2022/07/06 11:22:24;;;;;;;1.17;1.07;;;23.30;47.00;;;;;;4939025;29;20440;-56
2022/07/06 11:24:55;;;;;;;1.03;1.00;;;23.30;47.00;;;;;;4938502;29;20958;-55
2022/07/06 11:27:22;;;;;;;1.03;1.00;;;23.30;47.00;;;;;;4940645;29;20499;-56
2022/07/06 11:29:48;;;;;;;1.10;1.00;;;23.30;46.90;;;;;;4934291;29;20448;-59
2022/07/06 11:32:14;;;;;;;1.20;1.10;;;23.30;47.00;;;;;;4937899;29;20471;-56
2022/07/06 11:34:43;;;;;;;1.20;1.10;;;23.30;47.00;;;;;;4942576;29;20183;-55
2022/07/06 11:37:11;;;;;;;1.13;1.03;;;23.30;46.90;;;;;;4936380;29;20429;-56
2022/07/06 11:39:46;;;;;;;1.20;1.10;;;23.30;47.00;;;;;;4937778;29;20460;-57
2022/07/06 11:42:14;;;;;;;0.90;0.90;;;23.30;46.90;;;;;;4938559;29;20479;-57
2022/07/06 11:44:41;;;;;;;0.90;0.90;;;23.30;46.90;;;;;;4934279;29;20433;-56
2022/07/06 11:47:10;;;;;;;1.27;1.17;;;23.30;46.90;;;;;;4938105;29;20943;-60
2022/07/06 11:49:38;;;;;;;1.30;1.20;;;23.30;46.90;;;;;;4934804;29;20432;-56
2022/07/06 11:52:08;;;;;;;1.10;1.00;;;23.30;46.80;;;;;;4939033;29;20603;-60
2022/07/06 11:54:34;;;;;;;1.20;1.10;;;23.30;46.80;;;;;;4937876;29;20436;-58
2022/07/06 11:57:03;;;;;;;1.20;1.10;;;23.30;46.80;;;;;;4940546;29;20424;-57
2022/07/06 11:59:31;;;;;;;1.10;1.00;;;23.30;46.80;;;;;;4937161;29;20198;-58
2022/07/06 12:02:03;;;;;;;1.23;1.13;;;23.30;46.80;;;;;;4937015;29;20468;-59
2022/07/06 12:04:30;;;;;;;0.90;0.90;;;23.30;46.80;;;;;;4934631;29;20440;-56
2022/07/06 12:07:00;;;;;;;1.30;1.20;;;23.30;46.80;;;;;;4938902;29;20436;-57
2022/07/06 12:09:28;;;;;;;1.27;1.17;;;23.30;46.80;;;;;;4936452;29;20484;-57
2022/07/06 12:11:54;;;;;;;1.30;1.20;;;23.30;46.80;;;;;;4935055;29;20567;-56
2022/07/06 12:14:21;;;;;;;1.13;1.10;;;23.30;46.90;;;;;;4937793;29;20531;-56
2022/07/06 12:16:49;;;;;;;1.20;1.10;;;23.30;46.80;;;;;;4936200;29;20202;-56
2022/07/06 12:19:17;;;;;;;1.00;1.00;;;23.30;46.90;;;;;;4935069;29;20442;-57
2022/07/06 12:21:49;;;;;;;0.93;0.93;;;23.30;46.90;;;;;;4942585;29;20429;-55
2022/07/06 12:24:20;;;;;;;1.03;0.90;;;23.30;46.80;;;;;;4935603;29;20444;-55
2022/07/06 12:26:47;;;;;;;1.40;1.30;;;23.30;46.80;;;;;;4935376;29;20974;-57
2022/07/06 12:29:13;;;;;;;1.10;1.00;;;23.30;46.80;;;;;;4938150;29;20437;-61
2022/07/06 12:31:54;;;;;;;1.33;1.23;;;23.30;46.80;;;;;;4933015;29;21114;-60
2022/07/06 12:34:20;;;;;;;0.93;0.93;;;23.30;46.80;;;;;;4938256;29;20924;-56
2022/07/06 12:36:57;;;;;;;1.10;1.10;;;23.30;46.80;;;;;;4932891;29;20540;-62
2022/07/06 12:39:27;;;;;;;1.10;1.03;;;23.30;46.70;;;;;;4941130;29;20448;-56
2022/07/06 12:42:00;;;;;;;1.30;1.20;;;23.30;46.80;;;;;;4934959;29;20482;-55
2022/07/06 12:44:26;;;;;;;1.10;1.00;;;23.30;46.80;;;;;;4935180;29;20440;-63
2022/07/06 12:47:23;;;;;;;1.20;1.10;;;23.30;46.70;;;;;;4933501;29;20444;-59
2022/07/06 12:50:07;;;;;;;1.30;1.20;;;23.30;46.80;;;;;;4916227;29;20205;-56
2022/07/06 12:52:35;;;;;;;1.17;1.07;;;23.30;46.80;;;;;;4934700;29;20548;-58